createdAt,value
2022-09-29T00:05:16.562Z,18.35
2022-09-29T00:07:43.499Z,17.73
2022-09-29T00:10:10.449Z,23.17
2022-09-29T00:12:37.385Z,30.83
2022-09-29T00:15:05.340Z,21.90
2022-09-29T00:17:32.308Z,24.85
2022-09-29T00:19:59.252Z,21.42
2022-09-29T03:38:11.522Z,18.67
2022-09-29T03:40:38.529Z,13.52
2022-09-29T03:43:05.643Z,16.58
2022-09-29T03:45:32.620Z,12.25
2022-09-29T03:47:59.641Z,15.30
2022-09-29T03:50:26.568Z,11.93
2022-09-29T03:52:53.543Z,11.80
2022-09-29T03:55:20.522Z,15.80
2022-09-29T03:57:47.496Z,15.68
2022-09-29T04:00:15.218Z,18.15
2022-09-29T04:02:42.181Z,15.85
2022-09-29T04:05:09.315Z,17.55
2022-09-29T04:07:36.472Z,19.13
2022-09-29T04:10:03.769Z,21.40
2022-09-29T04:12:30.697Z,17.40
2022-09-29T07:49:46.644Z,42.83
2022-09-29T07:52:14.085Z,49.75
2022-09-29T07:54:41.047Z,49.40
2022-09-29T07:57:08.068Z,40.00
2022-09-29T07:59:35.001Z,41.10
2022-09-29T17:45:18.651Z,42.50
2022-09-29T18:00:27.487Z,61.30
2022-09-29T18:02:57.546Z,33.35
2022-09-29T18:05:27.007Z,34.85
2022-09-29T18:07:57.151Z,52.85
2022-09-29T18:10:29.610Z,35.53
2022-09-29T18:12:57.198Z,23.80
2022-09-29T18:15:25.538Z,22.08
2022-09-29T18:18:00.120Z,13.93
2022-09-29T18:20:30.641Z,10.48
2022-09-29T18:23:00.768Z,12.23
2022-09-29T18:25:30.781Z,14.70
2022-09-29T18:27:58.287Z,16.90
2022-09-29T18:30:32.447Z,14.57
2022-09-29T18:33:00.557Z,21.63
2022-09-29T18:35:32.968Z,20.52
2022-09-29T18:38:00.988Z,21.60
2022-09-29T18:40:30.518Z,16.67
2022-09-29T18:42:58.885Z,16.80
